Time;durP1;ratioP1;P1;durP2;ratioP2;P2;SDS_P1;SDS_P2;PMS_P1;PMS_P2;Temp;Humidity;BMP_temperature;BMP_pressure;BME280_temperature;BME280_humidity;BME280_pressure;Samples;Min_cycle;Max_cycle;Signal;HPM_P1;HPM_P2
2023/03/01 00:01:56;;;;;;;0.57;0.57;;;;;;;4.25;100.00;100071.78;5113022;28;20661;-60
2023/03/01 00:04:22;;;;;;;1.90;1.20;;;;;;;3.98;100.00;100071.72;5112977;28;20194;-62
2023/03/01 00:06:49;;;;;;;0.80;0.80;;;;;;;4.16;100.00;100066.97;5112683;28;20209;-60
2023/03/01 00:09:16;;;;;;;1.40;1.30;;;;;;;4.25;100.00;100062.50;5112763;28;20197;-60
2023/03/01 00:11:44;;;;;;;0.93;0.93;;;;;;;4.29;100.00;100064.03;5112734;28;20194;-63
2023/03/01 00:14:10;;;;;;;0.80;0.80;;;;;;;4.32;100.00;100063.94;5112785;28;20245;-60
2023/03/01 00:16:39;;;;;;;0.50;0.47;;;;;;;4.36;100.00;100058.78;5112650;28;20587;-60
2023/03/01 00:19:08;;;;;;;1.80;0.93;;;;;;;4.42;100.00;100056.91;5112551;28;20208;-60
2023/03/01 00:21:35;;;;;;;0.90;0.90;;;;;;;4.52;100.00;100052.38;5112586;28;20657;-60
2023/03/01 00:24:03;;;;;;;0.50;0.50;;;;;;;4.47;100.00;100061.81;5112697;28;20564;-63
2023/03/01 00:26:30;;;;;;;1.17;1.07;;;;;;;4.31;100.00;100056.41;5112529;28;20216;-63
2023/03/01 00:28:58;;;;;;;2.53;1.30;;;;;;;4.36;100.00;100058.78;5112362;28;20233;-63
2023/03/01 00:31:27;;;;;;;1.30;0.70;;;;;;;4.30;100.00;100060.66;5112568;28;20232;-62
2023/03/01 00:33:57;;;;;;;0.57;0.57;;;;;;;4.37;100.00;100055.41;5112117;28;20221;-62
2023/03/01 00:36:27;;;;;;;0.60;0.60;;;;;;;4.18;100.00;100055.13;5112118;28;20208;-63
2023/03/01 00:38:54;;;;;;;0.90;0.90;;;;;;;4.27;100.00;100054.84;5112086;28;20232;-60
2023/03/01 00:41:26;;;;;;;0.50;0.50;;;;;;;4.31;100.00;100052.16;5111966;28;20193;-60
2023/03/01 00:43:54;;;;;;;0.60;0.60;;;;;;;4.35;100.00;100041.94;5112396;28;20235;-60
2023/03/01 00:46:23;;;;;;;0.53;0.47;;;;;;;4.34;100.00;100036.06;5112307;28;20224;-62
2023/03/01 00:48:50;;;;;;;0.83;0.80;;;;;;;4.26;100.00;100033.75;5111922;28;20310;-60
2023/03/01 00:51:19;;;;;;;0.57;0.57;;;;;;;4.37;100.00;100030.06;5112100;28;20208;-62
2023/03/01 00:53:51;;;;;;;2.47;0.70;;;;;;;4.33;100.00;100029.31;5111970;28;20221;-60
2023/03/01 00:56:18;;;;;;;2.40;0.43;;;;;;;4.28;100.00;100021.06;5111618;28;20371;-60
2023/03/01 00:58:45;;;;;;;1.60;1.50;;;;;;;4.24;100.00;100015.25;5112001;28;20642;-60
2023/03/01 01:01:17;;;;;;;0.37;0.37;;;;;;;4.27;100.00;100005.03;5111932;28;20217;-60
2023/03/01 01:03:46;;;;;;;0.70;0.70;;;;;;;4.34;100.00;100003.16;5111950;28;20262;-62
2023/03/01 01:06:18;;;;;;;0.80;0.60;;;;;;;4.32;100.00;100002.38;5111855;28;20571;-60
2023/03/01 01:08:47;;;;;;;0.67;0.63;;;;;;;4.30;100.00;99997.38;5111778;28;20225;-60
2023/03/01 01:11:14;;;;;;;2.30;1.23;;;;;;;4.28;100.00;100000.81;5111541;28;20193;-63
2023/03/01 01:13:41;;;;;;;0.80;0.80;;;;;;;4.22;100.00;99994.25;5111488;28;20228;-60
2023/03/01 01:16:09;;;;;;;0.40;0.40;;;;;;;4.20;100.00;99987.56;5111368;28;20198;-63
2023/03/01 01:18:36;;;;;;;0.40;0.40;;;;;;;4.16;100.00;99991.91;5111643;28;20231;-60
2023/03/01 01:21:07;;;;;;;1.60;0.93;;;;;;;4.16;100.00;99983.47;5111479;28;20197;-62
2023/03/01 01:23:35;;;;;;;0.93;0.93;;;;;;;4.00;100.00;99983.13;5111521;28;20589;-63
2023/03/01 01:26:07;;;;;;;2.83;1.37;;;;;;;4.01;100.00;99983.06;5111433;28;20219;-62
2023/03/01 01:28:34;;;;;;;1.53;0.73;;;;;;;4.11;100.00;99978.56;5111384;28;20237;-60
2023/03/01 01:31:01;;;;;;;2.13;0.90;;;;;;;3.96;100.00;99968.94;5111546;28;20197;-63
2023/03/01 01:33:28;;;;;;;1.07;0.87;;;;;;;4.08;100.00;99968.53;5111114;28;20323;-63
2023/03/01 01:35:55;;;;;;;2.27;0.90;;;;;;;4.02;100.00;99959.44;5111008;28;20211;-62
2023/03/01 01:38:22;;;;;;;1.00;0.97;;;;;;;3.97;100.00;99960.44;5111237;28;20236;-60
2023/03/01 01:40:50;;;;;;;1.47;1.37;;;;;;;3.92;100.00;99959.75;5111133;28;20208;-62
2023/03/01 01:43:23;;;;;;;0.10;0.10;;;;;;;4.08;100.00;99968.53;5111272;28;20217;-60
2023/03/01 01:45:51;;;;;;;0.57;0.57;;;;;;;3.89;100.00;99962.38;5110752;28;20201;-62
2023/03/01 01:48:21;;;;;;;0.50;0.50;;;;;;;4.02;100.00;99959.44;5111154;28;20237;-60
2023/03/01 01:50:55;;;;;;;0.50;0.50;;;;;;;4.04;100.00;99966.97;5110686;28;20208;-59
2023/03/01 01:53:22;;;;;;;1.27;1.03;;;;;;;3.93;100.00;99963.97;5111266;28;20334;-63
2023/03/01 01:55:54;;;;;;;1.10;0.63;;;;;;;3.89;100.00;99947.22;5110672;28;20204;-62
2023/03/01 01:58:23;;;;;;;1.33;0.93;;;;;;;3.83;100.00;99949.03;5110770;28;20582;-60
2023/03/01 02:00:50;;;;;;;0.70;0.70;;;;;;;3.79;100.00;99942.44;5110464;28;20197;-63
2023/03/01 02:03:23;;;;;;;0.87;0.87;;;;;;;3.81;100.00;99945.75;5110816;28;20270;-62
2023/03/01 02:05:57;;;;;;;0.50;0.50;;;;;;;3.79;100.00;99944.16;5109994;28;20201;-59
2023/03/01 02:08:27;;;;;;;0.40;0.40;;;;;;;3.81;100.00;99955.88;5109650;28;20229;-60
2023/03/01 02:10:56;;;;;;;2.63;1.20;;;;;;;3.90;100.00;99949.72;5110520;28;20197;-62
2023/03/01 02:13:24;;;;;;;0.47;0.47;;;;;;;3.89;100.00;99952.28;5110553;28;20278;-62
2023/03/01 02:15:51;;;;;;;1.30;0.97;;;;;;;3.76;100.00;99942.53;5110163;28;20199;-62
2023/03/01 02:18:21;;;;;;;3.03;0.50;;;;;;;3.71;100.00;99943.53;5109056;28;20239;-62
2023/03/01 02:21:01;;;;;;;0.40;0.40;;;;;;;3.86;100.00;99943.88;5110027;28;20194;-62
2023/03/01 02:23:29;;;;;;;1.60;1.10;;;;;;;3.75;100.00;99940.88;5110513;28;20221;-59
2023/03/01 02:26:03;;;;;;;0.90;0.50;;;;;;;3.76;100.00;99942.53;5110043;28;20204;-59
2023/03/01 02:28:36;;;;;;;0.50;0.50;;;;;;;3.65;100.00;99944.56;5110054;28;20229;-59
2023/03/01 02:33:50;;;;;;;0.50;0.50;;;;;;;3.63;100.00;99954.69;5110088;28;20278;-62
2023/03/01 02:36:21;;;;;;;1.47;1.17;;;;;;;3.66;100.00;99950.44;5109832;28;20196;-59
2023/03/01 02:38:50;;;;;;;1.40;1.30;;;;;;;3.80;100.00;99966.84;5110155;28;20239;-59
2023/03/01 02:41:20;;;;;;;0.40;0.40;;;;;;;3.61;100.00;99968.28;5110002;28;20198;-62
2023/03/01 02:43:48;;;;;;;1.10;0.87;;;;;;;3.65;100.00;99969.84;5109975;28;20711;-62
2023/03/01 02:46:18;;;;;;;1.27;0.97;;;;;;;3.54;100.00;99974.38;5109806;28;20681;-60
2023/03/01 02:48:48;;;;;;;2.43;2.00;;;;;;;3.53;100.00;99965.16;5109845;28;20243;-59
2023/03/01 02:51:28;;;;;;;2.27;2.07;;;;;;;3.69;100.00;99961.28;5109906;28;20193;-60
2023/03/01 02:54:07;;;;;;;1.30;1.23;;;;;;;3.60;100.00;99959.03;5109837;28;20225;-63
2023/03/01 02:56:34;;;;;;;3.77;1.07;;;;;;;3.65;100.00;99959.72;5110000;28;20201;-63
2023/03/01 02:59:03;;;;;;;1.83;1.70;;;;;;;3.55;100.00;99964.25;5110035;28;20207;-62
2023/03/01 03:01:36;;;;;;;0.73;0.73;;;;;;;3.59;100.00;99963.25;5109790;28;20588;-62
2023/03/01 03:04:04;;;;;;;2.30;2.10;;;;;;;3.48;100.00;99965.28;5109973;28;20296;-63
2023/03/01 03:06:32;;;;;;;1.90;1.80;;;;;;;3.63;100.00;99961.47;5109895;28;20189;-59
2023/03/01 03:08:59;;;;;;;1.40;1.30;;;;;;;3.45;100.00;99962.00;5110013;28;20236;-62
2023/03/01 03:11:25;;;;;;;0.57;0.57;;;;;;;3.52;100.00;99963.47;5109733;28;20197;-62
2023/03/01 03:13:52;;;;;;;1.07;1.00;;;;;;;3.56;100.00;99957.47;5109659;28;20602;-60
2023/03/01 03:16:21;;;;;;;2.37;2.00;;;;;;;3.62;100.00;99959.81;5109492;28;20692;-62
2023/03/01 03:18:49;;;;;;;1.17;1.07;;;;;;;3.60;100.00;99959.03;5110611;28;20231;-62
2023/03/01 03:21:16;;;;;;;0.87;0.87;;;;;;;3.66;100.00;99961.38;5113626;28;20695;-62
2023/03/01 03:23:43;;;;;;;1.53;1.43;;;;;;;3.54;100.00;99961.75;5113583;28;20274;-60
2023/03/01 03:26:14;;;;;;;2.07;1.87;;;;;;;3.39;100.00;99968.06;5113475;28;20198;-60
2023/03/01 03:28:41;;;;;;;1.80;1.43;;;;;;;3.53;100.00;99962.63;5113462;28;20577;-63
2023/03/01 03:31:09;;;;;;;0.57;0.57;;;;;;;3.63;100.00;99966.53;5113281;28;20193;-60
2023/03/01 03:33:38;;;;;;;2.03;1.87;;;;;;;3.60;100.00;99961.56;5113682;28;20705;-62
2023/03/01 03:36:05;;;;;;;1.37;1.27;;;;;;;3.40;100.00;99965.50;5113346;28;20198;-63
2023/03/01 03:38:33;;;;;;;6.20;1.13;;;;;;;3.54;100.00;99969.31;5113573;28;20221;-62
2023/03/01 03:41:07;;;;;;;1.97;1.87;;;;;;;3.60;100.00;99966.63;5113744;28;20219;-60
2023/03/01 03:43:35;;;;;;;3.40;2.30;;;;;;;3.76;100.00;99970.34;5113487;28;20248;-63
2023/03/01 03:46:05;;;;;;;0.70;0.60;;;;;;;3.64;100.00;99968.19;5113195;28;20196;-59
2023/03/01 03:48:33;;;;;;;2.17;1.87;;;;;;;3.69;100.00;99971.41;5113112;28;20229;-62
2023/03/01 03:51:05;;;;;;;2.57;2.03;;;;;;;3.68;100.00;99964.69;5113270;28;20193;-61
2023/03/01 03:53:32;;;;;;;3.80;1.57;;;;;;;3.73;100.00;99970.44;5112964;28;20225;-62
2023/03/01 03:55:59;;;;;;;1.70;1.33;;;;;;;3.74;100.00;99969.56;5112883;28;20193;-62
2023/03/01 03:58:27;;;;;;;1.00;0.53;;;;;;;3.61;100.00;99971.63;5112676;28;20224;-60
2023/03/01 04:00:56;;;;;;;1.60;1.07;;;;;;;3.64;100.00;99968.19;5113121;28;20205;-62
2023/03/01 04:03:24;;;;;;;1.07;1.03;;;;;;;3.84;100.00;99970.97;5111631;28;20221;-60
2023/03/01 04:05:52;;;;;;;0.87;0.87;;;;;;;3.73;100.00;99972.97;5112754;28;20562;-62
2023/03/01 04:08:22;;;;;;;1.33;1.23;;;;;;;3.70;100.00;99978.13;5112632;28;20225;-62
2023/03/01 04:10:51;;;;;;;2.03;1.00;;;;;;;3.60;100.00;99966.63;5112628;28;20197;-60
2023/03/01 04:13:20;;;;;;;4.50;2.43;;;;;;;3.65;100.00;99964.78;5112484;28;20221;-62
2023/03/01 04:15:47;;;;;;;2.37;2.17;;;;;;;3.58;100.00;99969.22;5112420;27;20197;-60
2023/03/01 04:18:15;;;;;;;4.83;2.10;;;;;;;3.73;100.00;99962.84;5112700;28;20221;-63
2023/03/01 04:20:43;;;;;;;13.23;3.87;;;;;;;3.38;100.00;99962.19;5112403;28;20193;-60
2023/03/01 04:23:15;;;;;;;0.87;0.87;;;;;;;3.51;100.00;99961.84;5112133;28;20221;-60
2023/03/01 04:25:53;;;;;;;1.93;1.57;;;;;;;3.57;100.00;99966.72;5112289;28;20197;-60
2023/03/01 04:28:20;;;;;;;1.27;1.27;;;;;;;3.46;100.00;99966.19;5112153;28;20229;-59
2023/03/01 04:30:48;;;;;;;1.07;0.77;;;;;;;3.50;100.00;99960.19;5111502;28;20189;-59
2023/03/01 04:33:15;;;;;;;2.80;2.10;;;;;;;3.52;100.00;99966.00;5112254;28;20220;-59
2023/03/01 04:35:42;;;;;;;1.43;1.33;;;;;;;3.40;100.00;99968.03;5111991;28;20216;-60
2023/03/01 04:38:09;;;;;;;1.03;1.03;;;;;;;3.40;100.00;99965.50;5112315;28;20226;-59
2023/03/01 04:40:37;;;;;;;0.93;0.93;;;;;;;3.43;100.00;99973.84;5111980;28;20197;-59
2023/03/01 04:43:05;;;;;;;1.40;1.07;;;;;;;3.42;100.00;99967.16;5112048;28;20221;-62
2023/03/01 04:45:34;;;;;;;0.70;0.70;;;;;;;3.57;100.00;99964.19;5111948;28;20201;-60
2023/03/01 04:48:01;;;;;;;2.53;1.33;;;;;;;3.27;100.00;99966.72;5112286;28;20700;-61
2023/03/01 04:50:28;;;;;;;1.53;1.43;;;;;;;3.51;100.00;99966.88;5111599;28;20240;-63
2023/03/01 04:52:58;;;;;;;2.50;1.23;;;;;;;3.54;100.00;99971.84;5112226;28;20228;-62
2023/03/01 04:55:26;;;;;;;8.13;1.83;;;;;;;3.53;100.00;99973.56;5111533;28;20247;-60
2023/03/01 04:57:53;;;;;;;1.23;1.23;;;;;;;3.51;100.00;99974.47;5111497;28;20776;-63
2023/03/01 05:00:23;;;;;;;1.33;1.23;;;;;;;3.46;100.00;99971.25;5111857;28;20201;-62
2023/03/01 05:02:53;;;;;;;1.80;1.70;;;;;;;3.46;100.00;99968.72;5111511;28;20247;-60
2023/03/01 05:05:25;;;;;;;2.47;1.57;;;;;;;3.80;100.00;99978.66;5111549;28;20232;-62
2023/03/01 05:07:54;;;;;;;2.10;1.40;;;;;;;3.55;100.00;99970.97;5111594;28;20262;-60
2023/03/01 05:10:21;;;;;;;2.13;1.07;;;;;;;3.62;100.00;99975.00;5111338;28;20233;-62
2023/03/01 05:12:48;;;;;;;2.07;1.57;;;;;;;3.56;100.00;99983.59;5111238;28;20224;-60
2023/03/01 05:15:14;;;;;;;1.60;1.50;;;;;;;3.53;100.00;99977.78;5111486;28;20209;-63
2023/03/01 05:17:43;;;;;;;2.33;1.93;;;;;;;3.52;100.00;99978.66;5111059;28;20229;-63
2023/03/01 05:20:11;;;;;;;2.83;1.90;;;;;;;3.52;100.00;99971.06;5111065;28;20200;-62
2023/03/01 05:22:38;;;;;;;0.73;0.73;;;;;;;3.49;100.00;99974.53;5111253;28;20224;-60
2023/03/01 05:25:07;;;;;;;3.57;2.57;;;;;;;3.58;100.00;99978.50;5111351;28;20194;-62
2023/03/01 05:27:34;;;;;;;2.83;1.60;;;;;;;3.43;100.00;99972.16;5111315;28;20228;-62
2023/03/01 05:30:13;;;;;;;1.73;1.63;;;;;;;3.40;100.00;99972.25;5111149;28;20248;-62
2023/03/01 05:32:41;;;;;;;0.70;0.70;;;;;;;3.42;100.00;99967.16;5110966;28;20728;-60
2023/03/01 05:35:10;;;;;;;2.30;1.57;;;;;;;3.52;100.00;99963.47;5110861;28;20203;-60
2023/03/01 05:37:37;;;;;;;1.20;1.10;;;;;;;3.63;100.00;99969.06;5111119;28;20308;-62
2023/03/01 05:40:05;;;;;;;3.03;2.03;;;;;;;3.56;100.00;99960.00;5111003;28;20202;-59
2023/03/01 05:42:32;;;;;;;1.60;0.70;;;;;;;3.74;100.00;99963.69;5111050;28;20252;-60
2023/03/01 05:44:59;;;;;;;1.13;1.03;;;;;;;3.73;100.00;99972.97;5110982;28;20201;-60
2023/03/01 05:47:25;;;;;;;0.60;0.60;;;;;;;3.53;100.00;99965.97;5110765;28;20225;-62
2023/03/01 05:49:52;;;;;;;2.17;1.97;;;;;;;3.34;100.00;99970.72;5110671;28;20229;-62
2023/03/01 05:52:20;;;;;;;1.07;1.07;;;;;;;3.45;100.00;99972.13;5110738;28;20216;-62
2023/03/01 05:54:47;;;;;;;0.90;0.90;;;;;;;3.61;100.00;99975.88;5110532;28;20197;-62
2023/03/01 05:57:14;;;;;;;2.03;0.90;;;;;;;3.74;100.00;99968.75;5110729;28;20254;-60
2023/03/01 05:59:41;;;;;;;2.03;1.43;;;;;;;3.76;100.00;99969.53;5110602;28;20211;-62
2023/03/01 06:02:08;;;;;;;0.67;0.67;;;;;;;3.67;100.00;99969.81;5110291;28;20213;-62
2023/03/01 06:04:35;;;;;;;1.20;1.10;;;;;;;3.74;100.00;99969.56;5110850;28;20197;-62
2023/03/01 06:07:02;;;;;;;0.57;0.57;;;;;;;3.80;100.00;99971.91;5110450;28;20217;-62
2023/03/01 06:09:30;;;;;;;1.00;0.43;;;;;;;3.68;100.00;99974.00;5110726;28;20607;-62
2023/03/01 06:11:57;;;;;;;0.63;0.63;;;;;;;3.78;100.00;99978.72;5110134;28;20304;-62
2023/03/01 06:14:24;;;;;;;0.50;0.50;;;;;;;3.59;100.00;99983.50;5110313;28;20205;-60
2023/03/01 06:16:51;;;;;;;0.70;0.70;;;;;;;3.76;100.00;99977.94;5109902;28;20589;-60
2023/03/01 06:19:17;;;;;;;0.50;0.50;;;;;;;3.73;100.00;99983.09;5110815;28;20216;-62
2023/03/01 06:21:44;;;;;;;1.50;1.40;;;;;;;3.70;100.00;99983.19;5109671;28;20204;-60
2023/03/01 06:24:12;;;;;;;1.20;1.13;;;;;;;3.77;100.00;99987.19;5110102;28;20197;-62
2023/03/01 06:26:41;;;;;;;1.33;0.93;;;;;;;3.71;100.00;99979.78;5110022;28;20202;-60
2023/03/01 06:29:08;;;;;;;0.83;0.83;;;;;;;3.69;100.00;99981.50;5110311;28;20323;-62
2023/03/01 06:31:35;;;;;;;1.27;1.17;;;;;;;3.60;100.00;99976.72;5109944;28;20194;-62
2023/03/01 06:34:03;;;;;;;2.37;1.40;;;;;;;3.75;100.00;99976.28;5110210;28;20201;-62
2023/03/01 06:36:31;;;;;;;1.70;1.43;;;;;;;3.68;100.00;99974.81;5109939;28;20204;-62
2023/03/01 06:38:58;;;;;;;1.40;1.30;;;;;;;3.69;100.00;99978.16;5110230;28;20316;-59
2023/03/01 06:41:25;;;;;;;2.60;1.03;;;;;;;3.74;100.00;99982.22;5109894;28;20201;-62
2023/03/01 06:43:54;;;;;;;1.03;1.00;;;;;;;3.90;100.00;99984.28;5109957;28;20225;-62
2023/03/01 06:46:21;;;;;;;1.40;1.30;;;;;;;3.93;100.00;99979.16;5109886;28;20270;-62
2023/03/01 06:48:48;;;;;;;1.37;1.27;;;;;;;3.79;100.00;99985.44;5109934;28;20328;-62
2023/03/01 06:51:15;;;;;;;0.83;0.83;;;;;;;3.93;100.00;99984.22;5109802;28;20204;-62
2023/03/01 06:53:42;;;;;;;5.50;1.97;;;;;;;3.83;100.00;99994.56;5110979;28;20221;-62
2023/03/01 06:56:09;;;;;;;1.63;0.80;;;;;;;3.64;100.00;99988.44;5114162;28;20216;-59
2023/03/01 06:58:35;;;;;;;2.30;1.30;;;;;;;3.93;100.00;99991.78;5114070;28;20217;-62
2023/03/01 07:01:08;;;;;;;2.40;1.53;;;;;;;3.84;100.00;99996.25;5114117;28;20200;-59
2023/03/01 07:03:35;;;;;;;3.40;1.43;;;;;;;3.69;100.00;99990.81;5114089;28;20217;-64
2023/03/01 07:06:01;;;;;;;0.50;0.50;;;;;;;3.66;100.00;99991.72;5114191;28;20393;-63
2023/03/01 07:08:28;;;;;;;0.70;0.70;;;;;;;3.75;100.00;99994.00;5113905;28;20217;-64
2023/03/01 07:10:59;;;;;;;0.73;0.73;;;;;;;3.79;100.00;99998.09;5113858;28;20229;-59
2023/03/01 07:13:26;;;;;;;2.27;1.50;;;;;;;3.91;100.00;99991.00;5113920;28;20221;-60
2023/03/01 07:15:53;;;;;;;2.87;1.57;;;;;;;3.83;100.00;99992.03;5113798;28;20197;-63
2023/03/01 07:18:21;;;;;;;1.77;1.67;;;;;;;3.95;100.00;99992.56;5113578;28;20237;-59
2023/03/01 07:20:48;;;;;;;3.03;2.47;;;;;;;3.70;100.00;99997.53;5113822;28;20197;-60
2023/03/01 07:23:15;;;;;;;2.57;2.03;;;;;;;3.79;100.00;99995.56;5113680;28;20220;-63
2023/03/01 07:25:42;;;;;;;1.93;1.47;;;;;;;3.86;100.00;99988.59;5113502;28;20198;-63
2023/03/01 07:28:08;;;;;;;1.17;1.03;;;;;;;3.83;100.00;99993.75;5113534;28;20228;-63
2023/03/01 07:30:36;;;;;;;1.57;1.47;;;;;;;3.93;100.00;99989.25;5113789;28;20236;-59
2023/03/01 07:33:03;;;;;;;2.97;2.13;;;;;;;3.93;100.00;99994.31;5113766;27;20224;-63
2023/03/01 07:35:33;;;;;;;1.47;1.37;;;;;;;3.79;100.00;99987.97;5113573;28;20370;-60
2023/03/01 07:38:00;;;;;;;1.73;1.53;;;;;;;3.76;100.00;99990.59;5113473;28;20270;-63
2023/03/01 07:40:26;;;;;;;12.47;1.07;;;;;;;3.80;100.00;99991.31;5113528;28;20208;-60
2023/03/01 07:42:56;;;;;;;2.60;1.93;;;;;;;3.94;100.00;99988.38;5113779;28;20592;-59
2023/03/01 07:45:23;;;;;;;1.10;1.10;;;;;;;3.81;100.00;99981.16;5113390;28;20310;-64
2023/03/01 07:47:51;;;;;;;1.73;0.73;;;;;;;4.11;100.00;99987.88;5113497;28;20243;-59
2023/03/01 07:50:18;;;;;;;1.13;1.13;;;;;;;3.95;100.00;99987.50;5113396;28;20236;-59
2023/03/01 07:52:48;;;;;;;3.60;1.87;;;;;;;4.02;100.00;99981.38;5113045;28;20237;-63
2023/03/01 07:55:15;;;;;;;1.27;1.17;;;;;;;4.02;100.00;99984.75;5112957;28;20352;-60
2023/03/01 07:57:42;;;;;;;0.60;0.60;;;;;;;4.08;100.00;99989.59;5112949;28;20308;-63
2023/03/01 08:00:12;;;;;;;1.43;1.00;;;;;;;4.00;100.00;99986.47;5113425;28;20201;-60
2023/03/01 08:02:40;;;;;;;0.50;0.50;;;;;;;4.09;100.00;99986.19;5112719;28;20223;-60
2023/03/01 08:05:07;;;;;;;2.50;1.33;;;;;;;4.07;100.00;99993.03;5111913;28;20208;-63
2023/03/01 08:07:34;;;;;;;1.20;0.67;;;;;;;4.08;100.00;99987.06;5112991;28;20727;-63
2023/03/01 08:10:02;;;;;;;2.00;1.73;;;;;;;4.28;100.00;99991.50;5113378;28;20247;-59
2023/03/01 08:12:29;;;;;;;2.27;1.47;;;;;;;4.27;100.00;99991.56;5112796;28;20217;-63
2023/03/01 08:14:56;;;;;;;1.43;1.33;;;;;;;4.08;100.00;99994.66;5113010;28;20544;-63
2023/03/01 08:17:23;;;;;;;1.63;1.53;;;;;;;4.27;100.00;99989.84;5112418;28;20232;-63
2023/03/01 08:19:50;;;;;;;1.47;0.70;;;;;;;4.29;100.00;99993.16;5113047;28;20596;-61
2023/03/01 08:22:17;;;;;;;0.63;0.63;;;;;;;4.37;100.00;99999.69;5112485;28;20224;-64
2023/03/01 08:24:44;;;;;;;1.37;1.27;;;;;;;4.19;100.00;99991.81;5113021;28;20197;-59
2023/03/01 08:27:13;;;;;;;1.53;1.43;;;;;;;4.27;100.00;99997.44;5112606;28;20235;-63
2023/03/01 08:29:40;;;;;;;2.77;2.00;;;;;;;4.19;100.00;99998.56;5112676;28;20229;-63
2023/03/01 08:32:06;;;;;;;0.90;0.90;;;;;;;4.23;100.00;100003.47;5112271;28;20217;-63
2023/03/01 08:34:35;;;;;;;0.77;0.77;;;;;;;4.14;100.00;100002.94;5112671;28;20200;-59
2023/03/01 08:37:02;;;;;;;1.70;1.60;;;;;;;4.02;100.00;99988.97;5112363;28;20697;-63
2023/03/01 08:39:29;;;;;;;0.97;0.97;;;;;;;4.00;100.00;99985.66;5112446;28;20197;-60
2023/03/01 08:41:56;;;;;;;0.77;0.77;;;;;;;4.12;100.00;99990.34;5112417;28;20225;-63
2023/03/01 08:44:25;;;;;;;2.17;1.37;;;;;;;4.36;100.00;99988.72;5112100;28;20209;-59
2023/03/01 08:46:53;;;;;;;0.97;0.97;;;;;;;4.15;100.00;99990.22;5112246;28;20718;-63
2023/03/01 08:49:21;;;;;;;1.07;0.87;;;;;;;4.34;100.00;99994.72;5112084;28;20669;-63
2023/03/01 08:51:48;;;;;;;0.80;0.80;;;;;;;4.32;100.00;99982.94;5111963;28;20263;-61
2023/03/01 08:54:17;;;;;;;1.37;1.10;;;;;;;4.31;100.00;99981.28;5112406;28;20667;-59
2023/03/01 08:56:45;;;;;;;0.80;0.80;;;;;;;4.13;100.00;99974.28;5111600;28;20639;-63
2023/03/01 08:59:13;;;;;;;1.40;1.30;;;;;;;3.96;100.00;99979.88;5112025;28;20205;-59
2023/03/01 09:01:43;;;;;;;1.23;1.13;;;;;;;4.01;100.00;99974.66;5112019;28;20239;-63
2023/03/01 09:04:10;;;;;;;1.40;1.30;;;;;;;4.11;100.00;99968.44;5112010;28;20236;-63
2023/03/01 09:10:19;;;;;;;0.90;0.90;;;;;;;3.83;100.00;99968.47;5111978;28;20765;-59
2023/03/01 09:12:46;;;;;;;1.13;0.87;;;;;;;3.88;100.00;99975.91;5111454;28;20278;-63
2023/03/01 09:15:12;;;;;;;1.33;1.00;;;;;;;4.07;100.00;99980.38;5111749;28;20197;-63
2023/03/01 09:17:41;;;;;;;0.93;0.90;;;;;;;3.90;100.00;99969.09;5111020;28;20243;-63
2023/03/01 09:20:08;;;;;;;1.07;0.97;;;;;;;3.99;100.00;99976.41;5112075;28;20679;-63
2023/03/01 09:22:35;;;;;;;2.17;1.60;;;;;;;3.91;100.00;99969.06;5111149;28;20431;-63
2023/03/01 09:25:02;;;;;;;1.53;1.20;;;;;;;3.98;100.00;99964.63;5111866;28;20205;-60
2023/03/01 09:27:29;;;;;;;1.33;1.23;;;;;;;3.68;100.00;99964.69;5111217;28;20213;-60
2023/03/01 09:29:57;;;;;;;3.00;1.77;;;;;;;3.78;100.00;99971.16;5111430;28;20328;-63
2023/03/01 09:32:23;;;;;;;1.83;1.73;;;;;;;3.95;100.00;99969.78;5111100;28;20258;-59
2023/03/01 09:35:07;;;;;;;2.93;1.10;;;;;;;4.02;100.00;99973.78;5111740;28;20201;-63
2023/03/01 09:37:35;;;;;;;1.73;1.63;;;;;;;3.86;100.00;99976.78;5111154;28;20217;-59
2023/03/01 09:40:04;;;;;;;1.33;1.23;;;;;;;3.98;100.00;99977.28;5111681;28;20646;-60
2023/03/01 09:42:33;;;;;;;2.77;2.43;;;;;;;4.22;100.00;99968.94;5111672;28;20253;-63
2023/03/01 09:45:04;;;;;;;1.87;1.73;;;;;;;4.39;100.00;99965.84;5111470;28;20212;-60
2023/03/01 09:47:34;;;;;;;1.17;1.17;;;;;;;4.31;100.00;99970.34;5110998;28;20213;-61
2023/03/01 09:50:12;;;;;;;2.57;1.20;;;;;;;4.31;100.00;99967.81;5111464;28;20259;-63
2023/03/01 09:52:43;;;;;;;1.23;1.23;;;;;;;4.56;100.00;99960.22;5110712;28;20225;-59
2023/03/01 09:55:14;;;;;;;1.27;1.17;;;;;;;4.38;100.00;99970.97;5111266;28;20208;-63
2023/03/01 09:57:48;;;;;;;1.90;1.70;;;;;;;4.45;100.00;99978.31;5110873;28;20597;-63
2023/03/01 10:00:24;;;;;;;2.57;2.30;;;;;;;4.56;100.00;99979.66;5110982;28;20203;-59
2023/03/01 10:02:59;;;;;;;1.67;1.27;;;;;;;4.62;100.00;99970.13;5110791;28;20709;-62
2023/03/01 10:05:44;;;;;;;2.10;1.80;;;;;;;4.54;100.00;99972.13;5110923;28;20303;-59
2023/03/01 10:08:30;;;;;;;1.07;1.07;;;;;;;4.60;100.00;99974.44;5110448;28;20228;-63
2023/03/01 10:10:59;;;;;;;3.90;1.33;;;;;;;4.58;100.00;99973.66;5110510;28;20308;-63
2023/03/01 10:13:32;;;;;;;1.40;1.30;;;;;;;4.59;100.00;99972.78;5110576;28;20281;-63
2023/03/01 10:16:05;;;;;;;4.33;3.13;;;;;;;4.47;100.00;99968.94;5110544;28;20193;-63
2023/03/01 10:18:36;;;;;;;1.83;1.30;;;;;;;4.44;100.00;99960.63;5110471;28;20225;-63
2023/03/01 10:21:15;;;;;;;2.90;2.20;;;;;;;4.45;100.00;99962.28;5110895;28;20197;-63
2023/03/01 10:23:42;;;;;;;5.10;2.77;;;;;;;4.29;100.00;99957.72;5110297;28;20221;-59
2023/03/01 10:26:21;;;;;;;1.57;1.47;;;;;;;4.64;100.00;99958.25;5110264;28;20199;-63
2023/03/01 10:29:01;;;;;;;1.33;1.23;;;;;;;4.40;100.00;99961.63;5109558;28;20217;-63
2023/03/01 10:31:38;;;;;;;0.70;0.70;;;;;;;4.59;100.00;99954.22;5110215;28;20256;-63
2023/03/01 10:34:10;;;;;;;1.70;1.60;;;;;;;4.35;100.00;99953.34;5110623;28;20204;-63
2023/03/01 10:36:40;;;;;;;1.57;1.47;;;;;;;4.38;100.00;99955.78;5110225;28;20193;-60
2023/03/01 10:39:14;;;;;;;2.47;1.17;;;;;;;4.56;100.00;99945.03;5110544;28;20209;-63
2023/03/01 10:41:55;;;;;;;0.77;0.77;;;;;;;4.61;100.00;99943.16;5110308;28;20673;-59
2023/03/01 10:44:41;;;;;;;1.67;1.33;;;;;;;4.56;100.00;99939.97;5110379;28;20204;-63
2023/03/01 10:47:15;;;;;;;3.87;2.47;;;;;;;4.40;100.00;99933.78;5109914;28;20248;-59
2023/03/01 10:49:53;;;;;;;3.03;1.70;;;;;;;4.44;100.00;99936.13;5110060;28;20196;-63
2023/03/01 10:52:25;;;;;;;3.87;2.13;;;;;;;4.36;100.00;99932.19;5109752;28;20235;-59
2023/03/01 10:54:54;;;;;;;1.00;0.93;;;;;;;4.39;100.00;99927.03;5110021;28;20704;-60
2023/03/01 10:57:35;;;;;;;4.30;3.10;;;;;;;4.48;100.00;99914.91;5109964;28;20214;-63
2023/03/01 11:00:18;;;;;;;4.17;1.87;;;;;;;4.54;100.00;99908.81;5110747;28;20302;-61
2023/03/01 11:02:49;;;;;;;4.93;3.17;;;;;;;4.40;100.00;99908.44;5109873;28;20228;-63
2023/03/01 11:05:24;;;;;;;1.93;1.77;;;;;;;4.54;100.00;99896.16;5110415;28;20205;-60
2023/03/01 11:07:56;;;;;;;2.07;1.23;;;;;;;4.60;100.00;99895.94;5109988;28;20734;-63
2023/03/01 11:10:25;;;;;;;2.93;2.40;;;;;;;4.68;100.00;99893.97;5110172;28;20209;-63
2023/03/01 11:12:53;;;;;;;2.90;1.83;;;;;;;4.40;100.00;99894.09;5109889;28;20229;-63
2023/03/01 11:15:27;;;;;;;3.07;2.33;;;;;;;4.44;100.00;99893.09;5110074;28;20197;-63
2023/03/01 11:17:55;;;;;;;3.17;1.90;;;;;;;4.42;100.00;99887.28;5109888;28;20256;-63
2023/03/01 11:20:28;;;;;;;0.73;0.67;;;;;;;4.73;100.00;99887.00;5109884;28;20201;-60
2023/03/01 11:22:59;;;;;;;1.13;1.07;;;;;;;4.56;100.00;99879.19;5109789;28;20214;-60
2023/03/01 11:25:27;;;;;;;2.20;1.87;;;;;;;4.46;100.00;99870.25;5109896;28;20204;-63
2023/03/01 11:27:57;;;;;;;1.63;1.50;;;;;;;4.53;100.00;99864.09;5109934;28;20229;-60
2023/03/01 11:30:28;;;;;;;2.27;2.07;;;;;;;4.71;100.00;99863.47;5110098;28;20755;-60
2023/03/01 11:33:09;;;;;;;3.80;1.40;;;;;;;4.45;100.00;99866.06;5109923;28;20221;-63
2023/03/01 11:35:42;;;;;;;2.17;1.77;;;;;;;4.43;100.00;99860.25;5109913;28;20201;-59
2023/03/01 11:38:19;;;;;;;2.00;1.87;;;;;;;4.45;100.00;99866.06;5109454;28;20355;-63
2023/03/01 11:40:50;;;;;;;1.27;1.23;;;;;;;4.82;100.00;99864.78;5112198;28;20231;-60
2023/03/01 11:43:25;;;;;;;2.13;2.03;;;;;;;5.00;100.00;99861.56;5113626;28;20285;-60
2023/03/01 11:46:12;;;;;;;2.80;2.07;;;;;;;4.67;100.00;99856.00;5113321;28;20197;-63
2023/03/01 11:48:54;;;;;;;4.70;1.53;;;;;;;4.78;100.00;99855.63;5079222;28;20225;-63